Time;durP1;ratioP1;P1;durP2;ratioP2;P2;SDS_P1;SDS_P2;PMS_P1;PMS_P2;Temp;Humidity;BMP_temperature;BMP_pressure;BME280_temperature;BME280_humidity;BME280_pressure;Samples;Min_cycle;Max_cycle;Signal;HPM_P1;HPM_P2
2024/04/23 00:00:17;;;;;;;8.48;4.68;;;;;;;;;;5474514;26;20034;-65
2024/04/23 00:02:43;;;;;;;7.00;3.97;;;;;;;;;;5473507;26;20026;-64
2024/04/23 00:05:09;;;;;;;8.60;4.15;;;;;;;;;;5479328;26;20038;-65
2024/04/23 00:07:35;;;;;;;7.15;4.65;;;;;;;;;;5444422;26;20018;-65
2024/04/23 00:10:02;;;;;;;7.35;4.47;;;;;;;;;;5480043;26;20383;-65
2024/04/23 00:12:28;;;;;;;6.47;4.15;;;;;;;;;;5469962;26;20030;-64
2024/04/23 00:14:54;;;;;;;8.13;4.28;;;;;;;;;;5398018;26;20050;-66
2024/04/23 00:17:20;;;;;;;8.63;4.82;;;;;;;;;;5477691;26;20034;-65
2024/04/23 00:19:46;;;;;;;10.23;4.55;;;;;;;;;;5476223;26;20033;-65
2024/04/23 00:22:12;;;;;;;8.63;4.53;;;;;;;;;;5433955;26;20029;-65
2024/04/23 00:24:38;;;;;;;6.65;4.70;;;;;;;;;;5482042;26;20046;-65
2024/04/23 00:27:04;;;;;;;7.72;4.25;;;;;;;;;;5446917;26;20027;-65
2024/04/23 00:29:30;;;;;;;8.60;5.00;;;;;;;;;;5482410;26;20026;-64
2024/04/23 00:31:56;;;;;;;7.15;4.40;;;;;;;;;;5478669;26;20042;-65
2024/04/23 00:34:22;;;;;;;6.15;4.30;;;;;;;;;;5482101;26;20038;-65
2024/04/23 00:36:51;;;;;;;7.45;4.63;;;;;;;;;;5478125;26;20034;-65
2024/04/23 00:39:17;;;;;;;6.60;4.13;;;;;;;;;;5480554;26;20387;-65
2024/04/23 00:41:43;;;;;;;9.77;4.90;;;;;;;;;;5480049;26;20263;-65
2024/04/23 00:44:09;;;;;;;6.95;4.10;;;;;;;;;;5433539;26;20043;-65
2024/04/23 00:46:38;;;;;;;7.75;4.65;;;;;;;;;;5457643;26;20035;-65
2024/04/23 00:49:06;;;;;;;11.50;5.07;;;;;;;;;;5469763;26;20152;-65
2024/04/23 00:51:32;;;;;;;8.50;4.80;;;;;;;;;;5472954;26;20454;-65
2024/04/23 00:53:59;;;;;;;7.40;4.55;;;;;;;;;;5473268;26;20019;-65
2024/04/23 00:56:25;;;;;;;8.48;4.97;;;;;;;;;;5446847;26;20041;-65
2024/04/23 00:58:52;;;;;;;9.15;5.25;;;;;;;;;;5474743;26;20042;-65
2024/04/23 01:01:19;;;;;;;8.43;4.70;;;;;;;;;;5446032;26;20038;-65
2024/04/23 01:03:45;;;;;;;7.55;4.55;;;;;;;;;;5419110;26;20380;-65
2024/04/23 01:06:11;;;;;;;10.80;5.00;;;;;;;;;;5467292;26;20041;-65
2024/04/23 01:08:37;;;;;;;10.27;4.78;;;;;;;;;;5477929;26;20030;-65
2024/04/23 01:11:04;;;;;;;6.50;4.50;;;;;;;;;;5481057;26;20397;-65
2024/04/23 01:13:31;;;;;;;8.07;5.05;;;;;;;;;;5479147;26;20026;-65
2024/04/23 01:15:57;;;;;;;7.75;4.75;;;;;;;;;;5475463;26;20035;-65
2024/04/23 01:18:25;;;;;;;7.82;4.55;;;;;;;;;;5472530;26;20041;-65
2024/04/23 01:20:55;;;;;;;9.05;4.80;;;;;;;;;;5466721;26;20453;-65
2024/04/23 01:23:35;;;;;;;;;;;;;;;;;;5470088;26;20485;-67
2024/04/23 01:26:08;;;;;;;7.65;4.18;;;;;;;;;;5481625;26;19952;-65
2024/04/23 01:28:40;;;;;;;10.05;5.25;;;;;;;;;;5437031;26;20346;-65
2024/04/23 01:31:09;;;;;;;9.10;5.22;;;;;;;;;;5477799;26;20138;-64
2024/04/23 01:33:37;;;;;;;8.13;4.85;;;;;;;;;;5425426;26;20031;-65
2024/04/23 01:36:04;;;;;;;9.05;4.45;;;;;;;;;;5439166;26;20129;-65
2024/04/23 01:38:32;;;;;;;9.75;5.10;;;;;;;;;;5468437;26;20027;-64
2024/04/23 01:40:59;;;;;;;9.65;5.18;;;;;;;;;;5464363;26;20356;-66
2024/04/23 01:43:25;;;;;;;9.05;5.30;;;;;;;;;;5428554;26;20046;-65
2024/04/23 01:45:53;;;;;;;7.88;4.70;;;;;;;;;;5469798;26;20145;-65
2024/04/23 01:48:19;;;;;;;10.57;5.28;;;;;;;;;;5462519;26;20026;-65
2024/04/23 01:50:46;;;;;;;9.20;4.80;;;;;;;;;;5439331;26;20037;-65
2024/04/23 01:53:12;;;;;;;7.05;4.50;;;;;;;;;;5479134;26;20022;-65
2024/04/23 01:55:38;;;;;;;8.20;4.78;;;;;;;;;;5437740;26;20038;-64
2024/04/23 01:58:04;;;;;;;9.23;5.32;;;;;;;;;;5465796;26;20034;-64
2024/04/23 02:00:34;;;;;;;10.25;4.97;;;;;;;;;;5469879;26;20031;-64
2024/04/23 02:03:01;;;;;;;9.05;5.25;;;;;;;;;;5470961;26;20021;-65
2024/04/23 02:05:28;;;;;;;10.50;5.40;;;;;;;;;;5477477;26;20026;-65
2024/04/23 02:07:54;;;;;;;8.57;5.00;;;;;;;;;;5448555;26;20581;-64
2024/04/23 02:10:21;;;;;;;9.98;4.90;;;;;;;;;;5435126;26;20023;-64
2024/04/23 02:12:47;;;;;;;8.38;4.97;;;;;;;;;;5469056;26;20018;-64
2024/04/23 02:15:13;;;;;;;8.98;5.20;;;;;;;;;;5459598;26;20022;-64
2024/04/23 02:17:39;;;;;;;9.60;4.95;;;;;;;;;;5424213;26;20373;-64
2024/04/23 02:20:07;;;;;;;7.82;5.00;;;;;;;;;;5434524;26;20026;-65
2024/04/23 02:22:34;;;;;;;13.27;5.95;;;;;;;;;;5440005;26;19999;-64
2024/04/23 02:25:00;;;;;;;8.82;4.97;;;;;;;;;;5444145;26;20041;-65
2024/04/23 02:27:26;;;;;;;7.07;5.03;;;;;;;;;;5479754;26;20030;-64
2024/04/23 02:29:52;;;;;;;8.65;5.47;;;;;;;;;;5471923;26;20039;-65
2024/04/23 02:32:18;;;;;;;8.82;5.28;;;;;;;;;;5464841;26;20031;-65
2024/04/23 02:34:44;;;;;;;9.35;5.47;;;;;;;;;;5444832;26;20033;-64
2024/04/23 02:37:10;;;;;;;8.50;4.95;;;;;;;;;;5465987;26;20339;-65
2024/04/23 02:39:36;;;;;;;13.98;5.70;;;;;;;;;;5467152;26;20038;-64
2024/04/23 02:42:02;;;;;;;9.05;5.80;;;;;;;;;;5465782;26;20026;-65
2024/04/23 02:44:30;;;;;;;9.00;5.32;;;;;;;;;;5443129;26;20150;-65
2024/04/23 02:46:56;;;;;;;8.55;5.15;;;;;;;;;;5465606;26;20030;-65
2024/04/23 02:49:22;;;;;;;8.02;5.00;;;;;;;;;;5476088;26;20045;-65
2024/04/23 02:51:48;;;;;;;10.35;5.50;;;;;;;;;;5466021;26;20402;-64
2024/04/23 02:54:14;;;;;;;9.55;5.70;;;;;;;;;;5471580;26;20466;-64
2024/04/23 02:56:40;;;;;;;11.05;6.07;;;;;;;;;;5475717;26;20406;-64
2024/04/23 02:59:06;;;;;;;10.40;5.80;;;;;;;;;;5471393;26;20458;-65
2024/04/23 03:01:32;;;;;;;9.45;5.60;;;;;;;;;;5473975;26;20026;-65
2024/04/23 03:03:58;;;;;;;9.13;4.95;;;;;;;;;;5467893;26;20378;-65
2024/04/23 03:06:24;;;;;;;9.48;4.95;;;;;;;;;;5477349;26;20134;-65
2024/04/23 03:08:50;;;;;;;12.13;5.15;;;;;;;;;;5475611;26;20153;-64
2024/04/23 03:11:16;;;;;;;8.98;5.47;;;;;;;;;;5470454;26;20026;-63
2024/04/23 03:13:42;;;;;;;10.18;5.22;;;;;;;;;;5466651;26;20363;-65
2024/04/23 03:16:09;;;;;;;10.98;5.63;;;;;;;;;;5464827;26;20506;-65
2024/04/23 03:18:35;;;;;;;8.57;5.30;;;;;;;;;;5478007;26;20485;-64
2024/04/23 03:21:01;;;;;;;8.77;5.30;;;;;;;;;;5422664;26;20038;-66
2024/04/23 03:23:27;;;;;;;10.05;5.00;;;;;;;;;;5478386;26;20133;-66
2024/04/23 03:25:53;;;;;;;7.90;4.97;;;;;;;;;;5463836;26;20370;-65
2024/04/23 03:28:19;;;;;;;9.00;5.35;;;;;;;;;;5441993;26;20513;-66
2024/04/23 03:30:45;;;;;;;9.27;5.28;;;;;;;;;;5475869;26;20032;-63
2024/04/23 03:33:11;;;;;;;10.75;5.97;;;;;;;;;;5479278;26;20405;-65
2024/04/23 03:35:37;;;;;;;11.63;5.78;;;;;;;;;;5432321;26;20410;-64
2024/04/23 03:38:05;;;;;;;10.27;5.20;;;;;;;;;;5465359;26;20031;-63
2024/04/23 03:40:31;;;;;;;10.00;5.25;;;;;;;;;;5439851;26;20458;-65
2024/04/23 03:42:58;;;;;;;10.35;5.85;;;;;;;;;;5434452;26;20137;-65
2024/04/23 03:45:24;;;;;;;9.45;5.28;;;;;;;;;;5441260;26;20564;-64
2024/04/23 03:47:50;;;;;;;10.32;5.38;;;;;;;;;;5411344;26;20390;-64
2024/04/23 03:50:16;;;;;;;9.07;5.38;;;;;;;;;;5479711;26;20073;-65
2024/04/23 03:52:42;;;;;;;15.43;6.70;;;;;;;;;;5478870;26;20029;-64
2024/04/23 03:55:08;;;;;;;10.50;6.15;;;;;;;;;;5448933;26;20030;-64
2024/04/23 03:57:34;;;;;;;11.57;6.05;;;;;;;;;;5477401;26;20038;-63
2024/04/23 04:00:01;;;;;;;10.52;6.50;;;;;;;;;;5474898;26;20026;-67
2024/04/23 04:07:56;;;;;;;11.23;5.90;;;;;;;;;;5468176;26;20376;-65
2024/04/23 04:10:22;;;;;;;9.40;6.20;;;;;;;;;;5454582;26;20039;-64
2024/04/23 04:12:49;;;;;;;12.35;5.78;;;;;;;;;;5444807;26;20034;-64
2024/04/23 04:15:15;;;;;;;11.07;5.82;;;;;;;;;;5443398;26;20368;-65
2024/04/23 04:17:41;;;;;;;11.57;6.57;;;;;;;;;;5465079;26;20059;-65
2024/04/23 04:20:07;;;;;;;10.13;5.70;;;;;;;;;;5477185;26;20456;-65
2024/04/23 04:22:33;;;;;;;10.98;6.32;;;;;;;;;;5479271;26;20026;-65
2024/04/23 04:24:59;;;;;;;13.27;6.30;;;;;;;;;;5467995;26;20027;-64
2024/04/23 04:27:25;;;;;;;10.38;5.47;;;;;;;;;;5481062;26;20038;-64
2024/04/23 04:29:51;;;;;;;12.05;5.72;;;;;;;;;;5467062;26;20026;-64
2024/04/23 04:32:17;;;;;;;13.75;6.88;;;;;;;;;;5471275;26;20039;-63
2024/04/23 04:34:43;;;;;;;15.48;7.85;;;;;;;;;;5480124;26;20030;-63
2024/04/23 04:37:10;;;;;;;14.80;8.05;;;;;;;;;;5469434;26;20038;-64
2024/04/23 04:39:37;;;;;;;13.18;6.55;;;;;;;;;;5480957;26;20149;-63
2024/04/23 04:42:03;;;;;;;10.18;5.63;;;;;;;;;;5459344;26;20039;-62
2024/04/23 04:44:29;;;;;;;10.57;6.28;;;;;;;;;;5473249;26;20034;-63
2024/04/23 04:46:55;;;;;;;11.55;6.00;;;;;;;;;;5472769;26;20039;-62
2024/04/23 04:49:21;;;;;;;15.65;6.40;;;;;;;;;;5447517;26;20029;-63
2024/04/23 04:51:47;;;;;;;16.25;7.63;;;;;;;;;;5475607;26;20374;-62
2024/04/23 04:54:14;;;;;;;17.85;8.18;;;;;;;;;;5465767;26;20057;-62
2024/04/23 04:56:40;;;;;;;19.17;11.05;;;;;;;;;;5479580;26;20497;-63
2024/04/23 04:59:06;;;;;;;24.98;12.85;;;;;;;;;;5477464;26;20030;-63
2024/04/23 05:01:32;;;;;;;25.77;14.50;;;;;;;;;;5474010;26;20031;-63
2024/04/23 05:03:59;;;;;;;18.75;10.93;;;;;;;;;;5475455;26;20054;-63
2024/04/23 05:06:26;;;;;;;18.92;10.18;;;;;;;;;;5476203;26;20022;-63
2024/04/23 05:08:52;;;;;;;18.75;10.77;;;;;;;;;;5472227;26;20030;-62
2024/04/23 05:11:18;;;;;;;18.13;10.52;;;;;;;;;;5423700;26;20486;-63
2024/04/23 05:13:44;;;;;;;16.63;9.85;;;;;;;;;;5476012;26;20031;-63
2024/04/23 05:16:10;;;;;;;14.73;8.73;;;;;;;;;;5482411;26;20021;-63
2024/04/23 05:18:36;;;;;;;19.67;9.98;;;;;;;;;;5469629;26;20029;-62
2024/04/23 05:21:02;;;;;;;19.83;10.63;;;;;;;;;;5444205;26;20033;-63
2024/04/23 05:23:28;;;;;;;22.10;10.95;;;;;;;;;;5475487;26;20026;-63
2024/04/23 05:25:54;;;;;;;21.70;10.32;;;;;;;;;;5480287;26;20498;-64
2024/04/23 05:28:20;;;;;;;16.63;9.05;;;;;;;;;;5472765;26;20068;-63
2024/04/23 05:33:31;;;;;;;15.27;8.63;;;;;;;;;;5455350;26;20058;-64
2024/04/23 05:35:57;;;;;;;13.32;7.72;;;;;;;;;;5466887;26;20021;-63
2024/04/23 05:38:24;;;;;;;16.73;7.40;;;;;;;;;;5469503;26;20030;-64
2024/04/23 05:40:50;;;;;;;12.95;7.00;;;;;;;;;;5464270;26;20026;-64
2024/04/23 05:43:16;;;;;;;13.70;7.15;;;;;;;;;;5462914;26;20049;-64
2024/04/23 05:45:42;;;;;;;14.55;7.93;;;;;;;;;;5465530;26;20038;-64
2024/04/23 05:48:46;;;;;;;14.02;7.30;;;;;;;;;;5468469;26;20042;-65
2024/04/23 05:52:08;;;;;;;14.63;7.18;;;;;;;;;;5458670;26;20024;-63
2024/04/23 05:55:30;;;;;;;15.95;7.57;;;;;;;;;;5460407;26;20026;-64
2024/04/23 05:57:57;;;;;;;18.40;8.57;;;;;;;;;;5436420;26;20022;-63
2024/04/23 06:00:23;;;;;;;18.67;9.85;;;;;;;;;;5468038;26;20030;-62
2024/04/23 06:02:50;;;;;;;18.33;10.40;;;;;;;;;;5466333;26;20019;-63
2024/04/23 06:05:16;;;;;;;20.80;10.98;;;;;;;;;;5471688;26;20477;-63
2024/04/23 06:07:42;;;;;;;18.08;9.35;;;;;;;;;;5471060;26;20149;-62
2024/04/23 06:10:09;;;;;;;22.48;12.05;;;;;;;;;;5466713;26;20030;-62
2024/04/23 06:12:35;;;;;;;23.05;12.38;;;;;;;;;;5464164;26;20022;-63
2024/04/23 06:15:01;;;;;;;21.85;12.25;;;;;;;;;;5467549;26;20046;-64
2024/04/23 06:17:34;;;;;;;22.05;12.10;;;;;;;;;;5472339;26;20592;-63
2024/04/23 06:20:00;;;;;;;20.92;10.90;;;;;;;;;;5479489;26;20054;-63
2024/04/23 06:22:28;;;;;;;15.95;9.68;;;;;;;;;;5474988;26;20337;-64
2024/04/23 06:24:55;;;;;;;20.30;10.38;;;;;;;;;;5477142;26;20022;-64
2024/04/23 06:27:23;;;;;;;22.17;12.13;;;;;;;;;;5480288;26;20038;-63
2024/04/23 06:29:53;;;;;;;21.00;10.80;;;;;;;;;;5463766;26;20027;-63
2024/04/23 06:32:20;;;;;;;19.25;10.63;;;;;;;;;;5472344;26;20490;-61
2024/04/23 06:34:48;;;;;;;18.77;10.23;;;;;;;;;;5457738;26;20339;-63
2024/04/23 06:37:15;;;;;;;19.27;9.57;;;;;;;;;;5464972;26;20043;-63
2024/04/23 06:39:42;;;;;;;19.35;10.38;;;;;;;;;;5467217;26;20378;-62
2024/04/23 06:42:09;;;;;;;15.20;9.73;;;;;;;;;;5469060;26;20360;-63
2024/04/23 06:44:35;;;;;;;17.38;9.88;;;;;;;;;;5474706;26;20373;-63
2024/04/23 06:47:01;;;;;;;15.45;8.75;;;;;;;;;;5443619;26;20371;-62
2024/04/23 06:49:27;;;;;;;18.33;9.82;;;;;;;;;;5441769;26;20064;-64
2024/04/23 06:51:54;;;;;;;17.65;9.70;;;;;;;;;;5470126;26;20043;-63
2024/04/23 06:54:20;;;;;;;17.20;9.50;;;;;;;;;;5472305;26;20159;-63
2024/04/23 06:56:49;;;;;;;18.17;9.57;;;;;;;;;;5471854;26;20372;-63
2024/04/23 06:59:15;;;;;;;12.98;8.15;;;;;;;;;;5467563;26;20026;-64
2024/04/23 07:01:41;;;;;;;13.68;8.50;;;;;;;;;;5467778;26;20024;-63
2024/04/23 07:04:08;;;;;;;15.85;8.38;;;;;;;;;;5458878;26;20031;-63
2024/04/23 07:06:36;;;;;;;18.67;9.38;;;;;;;;;;5469677;26;20054;-64
2024/04/23 07:09:06;;;;;;;14.15;8.80;;;;;;;;;;5467915;26;20401;-64
2024/04/23 07:11:32;;;;;;;12.80;7.95;;;;;;;;;;5463940;26;20038;-63
2024/04/23 07:13:58;;;;;;;14.25;7.93;;;;;;;;;;5463946;26;20023;-63
2024/04/23 07:16:25;;;;;;;18.23;10.10;;;;;;;;;;5430446;26;20490;-63
2024/04/23 07:18:51;;;;;;;15.60;9.50;;;;;;;;;;5458531;26;20442;-64
2024/04/23 07:21:17;;;;;;;15.55;9.05;;;;;;;;;;5478383;26;20026;-63
2024/04/23 07:23:43;;;;;;;12.55;7.90;;;;;;;;;;5437226;26;20386;-65
2024/04/23 07:26:09;;;;;;;13.65;8.48;;;;;;;;;;5426406;26;20025;-63
2024/04/23 07:28:35;;;;;;;14.85;8.50;;;;;;;;;;5446201;26;20038;-64
2024/04/23 07:31:02;;;;;;;14.50;8.30;;;;;;;;;;5462574;26;20038;-63
2024/04/23 07:33:28;;;;;;;12.90;7.63;;;;;;;;;;5469363;26;20027;-63
2024/04/23 07:35:54;;;;;;;15.93;8.65;;;;;;;;;;5470178;26;20022;-63
2024/04/23 07:38:20;;;;;;;12.02;7.22;;;;;;;;;;5468181;26;20049;-63
2024/04/23 07:40:47;;;;;;;12.68;7.78;;;;;;;;;;5465386;26;20025;-63
2024/04/23 07:43:17;;;;;;;12.88;8.27;;;;;;;;;;5462749;26;20038;-62
2024/04/23 07:45:43;;;;;;;11.82;7.28;;;;;;;;;;5474290;26;20038;-62
2024/04/23 07:48:09;;;;;;;11.15;7.53;;;;;;;;;;5470276;26;20034;-63
2024/04/23 07:50:36;;;;;;;12.15;7.72;;;;;;;;;;5461850;26;20022;-63
2024/04/23 07:53:06;;;;;;;13.02;7.53;;;;;;;;;;5457733;26;20026;-63
2024/04/23 07:55:32;;;;;;;12.90;7.72;;;;;;;;;;5464741;26;20485;-63
2024/04/23 07:57:58;;;;;;;12.55;8.05;;;;;;;;;;5468443;26;20030;-65
2024/04/23 08:00:27;;;;;;;13.68;8.13;;;;;;;;;;5436839;26;20047;-63
2024/04/23 08:02:54;;;;;;;12.23;8.02;;;;;;;;;;5467438;26;20023;-63
2024/04/23 08:05:21;;;;;;;14.13;8.48;;;;;;;;;;5477293;26;20022;-62
2024/04/23 08:07:48;;;;;;;12.52;7.93;;;;;;;;;;5430328;26;20138;-63
2024/04/23 08:10:17;;;;;;;11.65;7.85;;;;;;;;;;5476138;26;20038;-63
2024/04/23 08:12:44;;;;;;;12.88;7.72;;;;;;;;;;5480636;26;20027;-64
2024/04/23 08:15:11;;;;;;;12.75;7.35;;;;;;;;;;5470192;26;20030;-63
2024/04/23 08:17:37;;;;;;;11.40;7.95;;;;;;;;;;5468001;26;20027;-63
2024/04/23 08:20:04;;;;;;;14.10;7.78;;;;;;;;;;5478331;26;20153;-63
2024/04/23 08:22:30;;;;;;;10.77;7.47;;;;;;;;;;5482054;26;20098;-63
2024/04/23 08:24:57;;;;;;;13.55;8.40;;;;;;;;;;5468474;26;20026;-64
2024/04/23 08:27:23;;;;;;;13.90;8.45;;;;;;;;;;5476370;26;20038;-63
2024/04/23 08:29:49;;;;;;;12.27;8.60;;;;;;;;;;5466160;26;20087;-62
2024/04/23 08:32:15;;;;;;;11.77;7.82;;;;;;;;;;5478112;26;20026;-62
2024/04/23 08:34:44;;;;;;;12.52;7.95;;;;;;;;;;5470096;26;20042;-63
2024/04/23 08:37:10;;;;;;;11.75;7.93;;;;;;;;;;5470587;26;20025;-62
2024/04/23 08:39:36;;;;;;;12.05;8.32;;;;;;;;;;5470662;26;20030;-63
2024/04/23 08:42:09;;;;;;;11.55;7.70;;;;;;;;;;5477374;26;20030;-64
2024/04/23 08:44:36;;;;;;;13.73;8.02;;;;;;;;;;5472067;26;20030;-63
2024/04/23 08:47:04;;;;;;;12.20;7.80;;;;;;;;;;5439902;26;20027;-63
2024/04/23 08:49:31;;;;;;;12.82;8.00;;;;;;;;;;5440591;26;20037;-63
2024/04/23 08:51:58;;;;;;;10.73;7.75;;;;;;;;;;5431760;26;20034;-63
2024/04/23 08:54:24;;;;;;;9.80;7.57;;;;;;;;;;5475653;26;20035;-63
2024/04/23 08:56:51;;;;;;;15.18;7.95;;;;;;;;;;5473287;26;20038;-64
2024/04/23 08:59:18;;;;;;;14.13;7.60;;;;;;;;;;5468883;26;20030;-64
2024/04/23 09:01:58;;;;;;;10.70;7.47;;;;;;;;;;5467698;26;20129;-63
2024/04/23 09:04:25;;;;;;;11.95;7.25;;;;;;;;;;5429755;26;20034;-63
2024/04/23 09:06:52;;;;;;;11.85;7.78;;;;;;;;;;5468969;26;20034;-62
2024/04/23 09:09:21;;;;;;;12.32;8.07;;;;;;;;;;5427913;26;20023;-64
2024/04/23 09:11:51;;;;;;;11.23;8.20;;;;;;;;;;5464813;26;20115;-62
2024/04/23 09:14:17;;;;;;;13.40;7.72;;;;;;;;;;5456502;26;20602;-63
2024/04/23 09:16:44;;;;;;;10.52;7.60;;;;;;;;;;5477770;26;20033;-62
2024/04/23 09:19:10;;;;;;;14.52;8.07;;;;;;;;;;5417296;26;20473;-63
2024/04/23 09:21:36;;;;;;;11.80;7.53;;;;;;;;;;5474898;26;20026;-63
2024/04/23 09:24:03;;;;;;;11.43;8.18;;;;;;;;;;5478208;26;20029;-63
2024/04/23 09:26:30;;;;;;;13.05;7.18;;;;;;;;;;5473178;26;20034;-63
2024/04/23 09:28:57;;;;;;;13.80;8.07;;;;;;;;;;5475375;26;20050;-63
2024/04/23 09:31:24;;;;;;;12.25;7.80;;;;;;;;;;5472384;26;20501;-65
2024/04/23 09:33:51;;;;;;;12.30;7.53;;;;;;;;;;5470030;26;20349;-65
2024/04/23 09:36:21;;;;;;;11.27;6.97;;;;;;;;;;5471351;26;20446;-66
2024/04/23 09:38:47;;;;;;;11.23;7.40;;;;;;;;;;5461300;26;20470;-65
2024/04/23 09:41:14;;;;;;;9.45;6.97;;;;;;;;;;5431068;26;20013;-62
2024/04/23 09:43:40;;;;;;;10.18;7.20;;;;;;;;;;5468584;26;20037;-62
2024/04/23 09:46:08;;;;;;;10.70;6.97;;;;;;;;;;5470275;26;20490;-63
2024/04/23 09:48:35;;;;;;;11.30;6.93;;;;;;;;;;5467630;26;20054;-62
2024/04/23 09:51:05;;;;;;;8.63;6.43;;;;;;;;;;5436247;26;20026;-62
2024/04/23 09:53:34;;;;;;;;;;;;;;;;;;5469273;26;20042;-63
2024/04/23 09:56:05;;;;;;;8.95;6.35;;;;;;;;;;5424077;26;20597;-63
2024/04/23 09:58:32;;;;;;;8.90;6.95;;;;;;;;;;5457692;26;20031;-63
2024/04/23 10:00:59;;;;;;;9.48;6.20;;;;;;;;;;5408828;26;20046;-63
2024/04/23 10:03:29;;;;;;;9.70;6.30;;;;;;;;;;5423187;26;20503;-64
2024/04/23 10:06:06;;;;;;;8.98;6.53;;;;;;;;;;5451999;26;20054;-64
2024/04/23 10:08:42;;;;;;;8.38;6.15;;;;;;;;;;5458895;26;20034;-64
2024/04/23 10:11:15;;;;;;;14.35;6.88;;;;;;;;;;5440343;26;20027;-64
2024/04/23 10:13:46;;;;;;;9.20;6.57;;;;;;;;;;5431622;26;20454;-63
2024/04/23 10:16:28;;;;;;;9.15;5.93;;;;;;;;;;5457391;26;20031;-63
2024/04/23 10:18:54;;;;;;;8.82;6.22;;;;;;;;;;5459790;26;20026;-64
2024/04/23 10:21:24;;;;;;;7.78;6.03;;;;;;;;;;5477214;26;20030;-63
2024/04/23 10:23:56;;;;;;;10.30;6.15;;;;;;;;;;5467874;26;20381;-63
2024/04/23 10:26:23;;;;;;;9.50;6.28;;;;;;;;;;5470079;26;20102;-63
2024/04/23 10:28:51;;;;;;;9.48;5.95;;;;;;;;;;5473128;26;20042;-64
2024/04/23 10:31:18;;;;;;;11.00;6.75;;;;;;;;;;5463968;26;20367;-64
2024/04/23 10:33:50;;;;;;;9.07;6.70;;;;;;;;;;5467025;26;20046;-63
2024/04/23 10:36:18;;;;;;;8.85;6.32;;;;;;;;;;5431590;26;20493;-64
2024/04/23 10:38:45;;;;;;;7.60;5.95;;;;;;;;;;5468785;26;20027;-64
2024/04/23 10:41:13;;;;;;;9.68;6.07;;;;;;;;;;5430502;26;20034;-63
2024/04/23 10:43:39;;;;;;;11.05;6.80;;;;;;;;;;5468811;26;20502;-64
2024/04/23 10:46:06;;;;;;;7.65;6.00;;;;;;;;;;5464156;26;20034;-62
2024/04/23 10:48:37;;;;;;;8.25;6.00;;;;;;;;;;5458504;26;20154;-63
2024/04/23 10:51:06;;;;;;;7.22;5.90;;;;;;;;;;5454267;26;20031;-62
2024/04/23 10:53:34;;;;;;;7.75;6.47;;;;;;;;;;5439240;26;20035;-62
2024/04/23 10:56:00;;;;;;;8.30;5.40;;;;;;;;;;5467639;26;20023;-63
2024/04/23 10:58:26;;;;;;;7.90;5.93;;;;;;;;;;5471220;26;20033;-64
2024/04/23 11:00:59;;;;;;;8.57;5.75;;;;;;;;;;5471320;26;20042;-63
2024/04/23 11:03:29;;;;;;;8.68;5.85;;;;;;;;;;5467251;26;20035;-62
2024/04/23 11:05:56;;;;;;;8.80;5.75;;;;;;;;;;5464996;26;20050;-63
2024/04/23 11:08:27;;;;;;;8.43;5.93;;;;;;;;;;5437502;26;20026;-64
2024/04/23 11:11:02;;;;;;;7.38;5.60;;;;;;;;;;5465223;26;20054;-63
2024/04/23 11:13:30;;;;;;;8.63;5.28;;;;;;;;;;5478021;26;20038;-63
2024/04/23 11:16:03;;;;;;;8.40;5.50;;;;;;;;;;5438621;26;20023;-63
2024/04/23 11:18:49;;;;;;;6.97;5.75;;;;;;;;;;5417818;26;20027;-63
2024/04/23 11:21:24;;;;;;;8.50;4.97;;;;;;;;;;5436665;26;20276;-63
2024/04/23 11:23:51;;;;;;;7.97;5.60;;;;;;;;;;5471526;26;20034;-63
2024/04/23 11:26:19;;;;;;;7.80;5.68;;;;;;;;;;5475848;26;20368;-62
2024/04/23 11:28:46;;;;;;;10.00;6.07;;;;;;;;;;5464901;26;20030;-64
2024/04/23 11:31:12;;;;;;;7.82;5.40;;;;;;;;;;5476148;26;20458;-63
2024/04/23 11:33:41;;;;;;;9.27;5.78;;;;;;;;;;5463494;26;20030;-63
2024/04/23 11:36:08;;;;;;;8.68;5.82;;;;;;;;;;5461763;26;20031;-63
2024/04/23 11:38:38;;;;;;;7.30;5.82;;;;;;;;;;5474165;26;20026;-63
2024/04/23 11:41:14;;;;;;;8.13;6.18;;;;;;;;;;5436070;26;20194;-63
2024/04/23 11:43:44;;;;;;;6.53;5.10;;;;;;;;;;5463770;26;20038;-62
2024/04/23 11:46:16;;;;;;;7.40;5.43;;;;;;;;;;5476635;26;20054;-63
2024/04/23 11:48:43;;;;;;;6.32;4.72;;;;;;;;;;5476047;26;20038;-63
2024/04/23 11:51:11;;;;;;;8.77;5.88;;;;;;;;;;5475436;26;20042;-62
2024/04/23 11:53:37;;;;;;;8.98;5.50;;;;;;;;;;5474892;26;20026;-64
2024/04/23 11:56:04;;;;;;;9.77;5.40;;;;;;;;;;5440300;26;20023;-63
2024/04/23 11:58:30;;;;;;;6.45;4.80;;;;;;;;;;5468231;26;20057;-63
2024/04/23 12:00:56;;;;;;;8.07;4.72;;;;;;;;;;5469567;26;20023;-63
2024/04/23 12:03:23;;;;;;;8.25;5.35;;;;;;;;;;5441282;26;20031;-63
2024/04/23 12:05:50;;;;;;;7.65;4.97;;;;;;;;;;5439105;26;20395;-62
2024/04/23 12:08:16;;;;;;;5.80;4.85;;;;;;;;;;5459339;26;20023;-63
2024/04/23 12:10:43;;;;;;;8.30;4.80;;;;;;;;;;5481217;26;20458;-62
2024/04/23 12:13:16;;;;;;;7.20;4.90;;;;;;;;;;5480553;26;20019;-63
2024/04/23 12:15:42;;;;;;;7.35;5.40;;;;;;;;;;5479376;26;20031;-63
2024/04/23 12:18:09;;;;;;;9.10;4.97;;;;;;;;;;5453991;26;20027;-62
2024/04/23 12:20:37;;;;;;;8.43;5.38;;;;;;;;;;5467671;26;20034;-63
2024/04/23 12:23:10;;;;;;;5.82;4.63;;;;;;;;;;5429026;26;20062;-63
2024/04/23 12:25:36;;;;;;;8.43;4.78;;;;;;;;;;5480295;26;20386;-64
2024/04/23 12:28:04;;;;;;;6.35;4.70;;;;;;;;;;5471556;26;20498;-63
2024/04/23 12:30:30;;;;;;;6.90;5.05;;;;;;;;;;5463319;26;20034;-63
2024/04/23 12:33:07;;;;;;;7.32;4.68;;;;;;;;;;5472758;26;20544;-64
2024/04/23 12:35:33;;;;;;;5.70;4.22;;;;;;;;;;5446197;26;20035;-64
2024/04/23 12:38:00;;;;;;;5.22;4.45;;;;;;;;;;5472678;26;20035;-63
2024/04/23 12:40:26;;;;;;;8.30;5.50;;;;;;;;;;5445199;26;20002;-66
2024/04/23 12:42:55;;;;;;;7.95;5.47;;;;;;;;;;5456356;26;20023;-65
2024/04/23 12:45:21;;;;;;;6.93;4.90;;;;;;;;;;5468898;26;20045;-64
2024/04/23 12:47:47;;;;;;;7.43;4.93;;;;;;;;;;5472105;26;20050;-64
2024/04/23 12:50:14;;;;;;;7.65;5.28;;;;;;;;;;5456565;26;20594;-65
2024/04/23 12:52:42;;;;;;;7.75;5.32;;;;;;;;;;5410269;26;20034;-64
2024/04/23 12:55:08;;;;;;;7.20;4.70;;;;;;;;;;5471749;26;20510;-65
2024/04/23 12:57:34;;;;;;;7.57;5.20;;;;;;;;;;5460544;26;20038;-64
2024/04/23 13:00:00;;;;;;;7.18;4.72;;;;;;;;;;5466959;26;20366;-64
2024/04/23 13:02:26;;;;;;;8.82;5.40;;;;;;;;;;5466694;26;20501;-64
2024/04/23 13:04:52;;;;;;;8.02;5.53;;;;;;;;;;5467929;26;20022;-65
2024/04/23 13:07:18;;;;;;;8.90;5.90;;;;;;;;;;5466336;26;20494;-64
2024/04/23 13:09:45;;;;;;;9.27;5.68;;;;;;;;;;5464483;26;20515;-64
2024/04/23 13:12:11;;;;;;;9.75;6.00;;;;;;;;;;5473458;26;20045;-63
2024/04/23 13:14:37;;;;;;;7.72;5.05;;;;;;;;;;5472774;26;20037;-63
2024/04/23 13:17:04;;;;;;;11.00;6.07;;;;;;;;;;5437411;26;20026;-64
2024/04/23 13:19:30;;;;;;;9.32;6.38;;;;;;;;;;5470954;26;20049;-64
2024/04/23 13:21:56;;;;;;;8.07;6.00;;;;;;;;;;5471294;26;20038;-64
2024/04/23 13:24:22;;;;;;;9.18;6.68;;;;;;;;;;5414137;26;20012;-63
2024/04/23 13:26:49;;;;;;;8.57;5.85;;;;;;;;;;5466041;26;20058;-65
2024/04/23 13:29:15;;;;;;;7.53;5.15;;;;;;;;;;5468810;26;20498;-64
2024/04/23 13:31:41;;;;;;;8.85;5.93;;;;;;;;;;5441339;26;20097;-64
2024/04/23 13:34:07;;;;;;;8.93;5.88;;;;;;;;;;5437676;26;19999;-64
2024/04/23 13:36:34;;;;;;;8.45;5.25;;;;;;;;;;5474710;26;20510;-64
2024/04/23 13:39:00;;;;;;;6.53;4.93;;;;;;;;;;5455398;26;20850;-64
2024/04/23 13:41:26;;;;;;;6.35;5.00;;;;;;;;;;5471401;26;20016;-65
2024/04/23 13:43:52;;;;;;;11.68;5.68;;;;;;;;;;5468841;26;20046;-65
2024/04/23 13:46:18;;;;;;;9.10;5.68;;;;;;;;;;5473647;26;19994;-65
2024/04/23 13:48:44;;;;;;;6.20;4.90;;;;;;;;;;5469610;26;20026;-65
2024/04/23 13:51:10;;;;;;;8.70;6.13;;;;;;;;;;5474038;26;20033;-63
2024/04/23 13:53:37;;;;;;;7.13;5.20;;;;;;;;;;5472511;26;20040;-64
2024/04/23 13:56:06;;;;;;;10.02;5.97;;;;;;;;;;5470850;26;20385;-64
2024/04/23 13:58:33;;;;;;;7.82;5.70;;;;;;;;;;5460430;26;20035;-63
2024/04/23 14:01:08;;;;;;;9.68;5.50;;;;;;;;;;5468938;26;20395;-63
2024/04/23 14:03:38;;;;;;;6.32;4.80;;;;;;;;;;5463154;26;20049;-64
2024/04/23 14:06:05;;;;;;;7.10;5.35;;;;;;;;;;5462792;26;20003;-64
2024/04/23 14:08:33;;;;;;;8.90;6.38;;;;;;;;;;5462378;26;20052;-65
2024/04/23 14:11:03;;;;;;;9.00;5.60;;;;;;;;;;5432590;26;20024;-66
2024/04/23 14:13:33;;;;;;;7.70;5.10;;;;;;;;;;5467715;26;20030;-66
2024/04/23 14:16:12;;;;;;;7.90;5.32;;;;;;;;;;5468913;26;20385;-64
2024/04/23 14:18:40;;;;;;;7.77;5.50;;;;;;;;;;5469269;26;20034;-64
2024/04/23 14:21:06;;;;;;;8.35;5.45;;;;;;;;;;5465472;26;20038;-65
2024/04/23 14:23:35;;;;;;;6.50;4.97;;;;;;;;;;5457674;26;20058;-64
2024/04/23 14:26:03;;;;;;;7.82;5.50;;;;;;;;;;5458383;26;20481;-64
2024/04/23 14:28:33;;;;;;;9.82;6.55;;;;;;;;;;5456417;26;20038;-64
2024/04/23 14:31:04;;;;;;;14.70;7.25;;;;;;;;;;5461099;26;20026;-66
2024/04/23 14:33:31;;;;;;;8.65;5.35;;;;;;;;;;5466445;26;20530;-65
2024/04/23 14:36:03;;;;;;;23.50;9.90;;;;;;;;;;5462435;26;20045;-65
2024/04/23 14:38:31;;;;;;;9.63;6.30;;;;;;;;;;5466142;26;20022;-64
2024/04/23 14:41:01;;;;;;;15.70;8.10;;;;;;;;;;5458331;26;20397;-65
2024/04/23 14:43:27;;;;;;;10.38;5.65;;;;;;;;;;5464568;26;20030;-64
2024/04/23 14:45:54;;;;;;;7.25;5.50;;;;;;;;;;5455159;26;20043;-64